Velkommen til min vejrside, der er mangler og fejl som bliver opdateret. Kom snart tilbage og få vejret - Welcome to our website - Welkom op onze vernieuwde website
Bienvenue sur notre site web - Willkommen auf unserer Website - Check our progress frequently. Prüfen Sie unsere Fortschritte regelmäßig. Consultez notre progression fréquemment. Komt u straks nog eens terug


vejr3>nv more information Vejr3>NV


3 timers nedbørs radar more information rain snow radar


besøg nogle andre vejrsider:

Template dokumentation
og downloads

And another site


weather underground historie, tekst side

dagens sammenfatning af december 7, 2017 enheder:  metrisk    engelsk   både
« forgående dag
næste dag »
dagens ugenligt månedlig årligt tilpasset
  høj: lav: gennemsnit:
temperatur: -17.8 °C -15.1 °C -14.2 °C
dugpunkt: -17.8 °C -15.6 °C -14.9 °C
fugtighed: Humidity % 82 % 91 %
vindhastighed: 0 km/h 12.9 km/h 49.1 km/h
vindstød: 0 km/h - -
vind:- - SSW
lufttryk: 0 hPa 33616.2 hPa -
nedbør: 129.54 mm    
Historical Graphs
 
 
tabeldata for december 7, 2017
tid temperatur dugpunkt lufttryk vind vindhastighed vindstød fugtighed regn (timme)
-17.8 °C -17.8 °C 0 hPa Calm     Humidity % 0 mm
00:01 -13.1 °C -14.1 °C 34246 hPa SW 35.7 km/h 35.7 km/h 89 % 0 mm
00:06 -13.1 °C -14.1 °C 34235.8 hPa SW 38.8 km/h 38.8 km/h 89 % 0 mm
00:11 -13.1 °C -14.1 °C 34235.8 hPa SSW 50.7 km/h 50.7 km/h 89 % 0 mm
00:16 -13.1 °C -14.1 °C 34235.8 hPa SSW 26.9 km/h 26.9 km/h 89 % 0 mm
00:21 -13.2 °C -14.1 °C 34235.8 hPa SSW 44.1 km/h 44.1 km/h 89 % 0 mm
00:26 -13.2 °C -14.1 °C 34235.8 hPa South 41.7 km/h 41.7 km/h 89 % 0 mm
00:31 -13.2 °C -14.1 °C 34235.8 hPa SSW 35.7 km/h 35.7 km/h 89 % 0 mm
00:36 -13.2 °C -14.1 °C 34222.3 hPa SW 35.7 km/h 35.7 km/h 89 % 0 mm
00:41 -13.2 °C -14.1 °C 34222.3 hPa West 32.8 km/h 32.8 km/h 89 % 0 mm
00:46 -13.2 °C -14.1 °C 34222.3 hPa SSE 38.8 km/h 38.8 km/h 89 % 0 mm
00:51 -13.2 °C -14.1 °C 34222.3 hPa West 44.7 km/h 44.7 km/h 89 % 0 mm
00:56 -13.2 °C -14.1 °C 34222.3 hPa SW 44.7 km/h 44.7 km/h 89 % 0 mm
01:01 -13.2 °C -14.1 °C 34222.3 hPa SW 50.7 km/h 50.7 km/h 89 % 0 mm
01:06 -13.2 °C -14.1 °C 34212.1 hPa South 32.8 km/h 32.8 km/h 89 % 0 mm
01:11 -13.2 °C -14.1 °C 34212.1 hPa SSW 53.6 km/h 53.6 km/h 89 % 0 mm
01:16 -13.2 °C -14.2 °C 34212.1 hPa South 44.7 km/h 44.7 km/h 88 % 0 mm
01:21 -13.2 °C -14.2 °C 34212.1 hPa SSW 50.7 km/h 50.7 km/h 88 % 0 mm
01:26 -13.2 °C -14.2 °C 34212.1 hPa SSW 50.7 km/h 50.7 km/h 88 % 0 mm
01:31 -13.2 °C -14.2 °C 34212.1 hPa SW 38.8 km/h 38.8 km/h 88 % 0 mm
01:36 -13.2 °C -14.2 °C 34212.1 hPa WSW 41.7 km/h 41.7 km/h 88 % 0 mm
01:41 -13.2 °C -14.2 °C 34198.6 hPa South 47.6 km/h 47.6 km/h 88 % 0 mm
01:46 -13.2 °C -14.2 °C 34198.6 hPa WSW 32.8 km/h 32.8 km/h 88 % 0 mm
01:51 -13.2 °C -14.2 °C 34198.6 hPa WSW 38.8 km/h 38.8 km/h 88 % 0 mm
01:56 -13.2 °C -14.3 °C 34198.6 hPa SW 31.1 km/h 31.1 km/h 87 % 0 mm
02:01 -13.2 °C -14.3 °C 34198.6 hPa SW 38.8 km/h 38.8 km/h 87 % 0 mm
02:06 -13.2 °C -14.4 °C 34198.6 hPa SW 44.7 km/h 44.7 km/h 86 % 0 mm
02:11 -13.2 °C -14.4 °C 34188.4 hPa SW 33.6 km/h 33.6 km/h 86 % 0 mm
02:16 -13.2 °C -14.4 °C 34188.4 hPa SSW 29.8 km/h 29.8 km/h 86 % 0 mm
02:21 -13.2 °C -14.4 °C 34188.4 hPa SSE 23.8 km/h 23.8 km/h 86 % 0 mm
02:26 -13.2 °C -14.6 °C 34188.4 hPa SSW 29.8 km/h 29.8 km/h 85 % 0 mm
02:31 -13.2 °C -14.6 °C 34188.4 hPa SSE 41.7 km/h 41.7 km/h 84 % 0 mm
02:36 -13.2 °C -14.6 °C 34188.4 hPa SW 65.5 km/h 65.5 km/h 84 % 0 mm
02:41 -13.2 °C -14.7 °C 34188.4 hPa WSW 47.6 km/h 47.6 km/h 83 % 0 mm
02:46 -13.2 °C -14.7 °C 34188.4 hPa SW 41.7 km/h 41.7 km/h 83 % 0 mm
02:51 -13.2 °C -14.8 °C 34178.3 hPa WSW 29.8 km/h 29.8 km/h 82 % 0 mm
02:56 -13.2 °C -14.8 °C 34178.3 hPa SW 46.7 km/h 46.7 km/h 82 % 0 mm
03:01 -13.2 °C -14.8 °C 34178.3 hPa SW 44.7 km/h 44.7 km/h 82 % 0 mm
03:06 -13.2 °C -14.8 °C 34164.7 hPa SW 38.8 km/h 38.8 km/h 82 % 0 mm
03:11 -13.2 °C -14.8 °C 34164.7 hPa SSW 44.7 km/h 44.7 km/h 82 % 0 mm
03:16 -13.2 °C -14.7 °C 34164.7 hPa SW 54.4 km/h 54.4 km/h 83 % 0 mm
03:21 -13.2 °C -14.6 °C 34164.7 hPa SSW 56.6 km/h 56.6 km/h 84 % 0 mm
03:27 -13.2 °C -14.6 °C 34164.7 hPa SSW 41.7 km/h 41.7 km/h 84 % 0 mm
03:32 -13.2 °C -14.5 °C 34164.7 hPa SW 50.7 km/h 50.7 km/h 85 % 0 mm
03:37 -13.2 °C -14.4 °C 34164.7 hPa SSW 36.2 km/h 36.2 km/h 86 % 0 mm
03:42 -13.2 °C -14.4 °C 34154.6 hPa South 47.6 km/h 47.6 km/h 86 % 0 mm
03:47 -13.2 °C -14.4 °C 34154.6 hPa SSW 62.6 km/h 62.6 km/h 87 % 0 mm
03:52 -13.2 °C -14.4 °C 34154.6 hPa SW 41.7 km/h 41.7 km/h 87 % 0 mm
03:57 -13.2 °C -14.4 °C 34154.6 hPa SSE 50.7 km/h 50.7 km/h 87 % 0 mm
04:02 -13.2 °C -14.4 °C 34144.4 hPa SW 50.7 km/h 50.7 km/h 87 % 0 mm
04:07 -13.2 °C -14.3 °C 34144.4 hPa SSW 38.8 km/h 38.8 km/h 88 % 0 mm
04:12 -13.3 °C -14.3 °C 34130.9 hPa WSW 50.7 km/h 50.7 km/h 88 % 0 mm
04:17 -13.3 °C -14.3 °C 34130.9 hPa SSW 18.2 km/h 33.6 km/h 88 % 0 mm
04:22 -13.3 °C -14.3 °C 34130.9 hPa SW 32.8 km/h 32.8 km/h 89 % 0 mm
04:23 -13.3 °C -14.3 °C 34130.9 hPa SW 49.2 km/h 49.2 km/h 89 % 0 mm
04:28 -13.3 °C -14.3 °C 34120.7 hPa SSE 38.8 km/h 38.8 km/h 89 % 0 mm
04:33 -13.3 °C -14.2 °C 34120.7 hPa West 44.7 km/h 44.7 km/h 90 % 0 mm
04:38 -13.3 °C -14.2 °C 34120.7 hPa SSW 41.7 km/h 41.7 km/h 90 % 0 mm
04:43 -13.4 °C -14.2 °C 34120.7 hPa South 44.1 km/h 44.1 km/h 90 % 0 mm
04:48 -13.3 °C -14.2 °C 34120.7 hPa WSW 65.5 km/h 65.5 km/h 90 % 0 mm
04:53 -13.4 °C -14.1 °C 34120.7 hPa SSW 31.1 km/h 51.8 km/h 91 % 0 mm
04:58 -13.4 °C -14.2 °C 34120.7 hPa SSW 50.7 km/h 50.7 km/h 91 % 0 mm
05:03 -13.4 °C -14.2 °C 34107.2 hPa South 44.7 km/h 44.7 km/h 91 % 0 mm
05:08 -13.4 °C -14.2 °C 34107.2 hPa SSW 53.6 km/h 53.6 km/h 91 % 0 mm
05:14 -13.4 °C -14.2 °C 34107.2 hPa SSW 56.6 km/h 56.6 km/h 91 % 0 mm
05:19 -13.4 °C -14.2 °C 34107.2 hPa SSW 23.3 km/h 38.8 km/h 91 % 0 mm
05:24 -13.4 °C -14.2 °C 34107.2 hPa SW 31.1 km/h 51.8 km/h 91 % 0 mm
05:29 -13.4 °C -14.2 °C 34107.2 hPa SSW 36.2 km/h 62.1 km/h 91 % 0 mm
05:34 -13.4 °C -14.3 °C 34097 hPa SSW 20.8 km/h 33.6 km/h 90 % 0 mm
05:39 -13.4 °C -14.3 °C 34097 hPa SW 23.3 km/h 41.4 km/h 90 % 0 mm
05:44 -13.4 °C -14.3 °C 34097 hPa SSW 25.9 km/h 31.1 km/h 90 % 0 mm
05:49 -13.4 °C -14.4 °C 34097 hPa SSW 25.9 km/h 51.8 km/h 89 % 0 mm
05:54 -13.4 °C -14.4 °C 34097 hPa SSW 33.6 km/h 54.4 km/h 89 % 0 mm
05:59 -13.4 °C -14.4 °C 34097 hPa SSW 31.1 km/h 44.1 km/h 89 % 0 mm
06:04 -13.4 °C -14.4 °C 34097 hPa SW 41.7 km/h 41.7 km/h 89 % 0 mm
06:09 -13.4 °C -14.4 °C 34097 hPa WSW 53.6 km/h 53.6 km/h 89 % 0 mm
06:14 -13.4 °C -14.4 °C 34097 hPa South 53.6 km/h 53.6 km/h 89 % 0 mm
06:19 -13.4 °C -14.4 °C 34086.9 hPa SSW 41.7 km/h 41.7 km/h 89 % 0 mm
06:24 -13.5 °C -14.4 °C 34097 hPa SSW 32.8 km/h 32.8 km/h 89 % 0 mm
06:29 -13.5 °C -14.5 °C 34097 hPa South 38.8 km/h 38.8 km/h 89 % 0 mm
06:34 -13.6 °C -14.5 °C 34086.9 hPa SSW 44.7 km/h 44.7 km/h 89 % 0 mm
06:39 -13.6 °C -14.6 °C 34086.9 hPa SSE 53.6 km/h 53.6 km/h 89 % 0 mm
06:45 -13.6 °C -14.6 °C 34086.9 hPa SSW 46.7 km/h 46.7 km/h 89 % 0 mm
06:50 -13.6 °C -14.6 °C 34086.9 hPa SSW 35.7 km/h 35.7 km/h 89 % 0 mm
06:55 -13.7 °C -14.6 °C 34086.9 hPa South 33.6 km/h 33.6 km/h 89 % 0 mm
07:00 -13.7 °C -14.6 °C 34073.3 hPa SSW 50.7 km/h 50.7 km/h 89 % 0 mm
07:05 -13.7 °C -14.6 °C 34073.3 hPa SW 41.7 km/h 41.7 km/h 89 % 0 mm
07:10 -13.7 °C -14.6 °C 34073.3 hPa SW 49.2 km/h 49.2 km/h 89 % 0 mm
07:15 -13.7 °C -14.6 °C 34073.3 hPa SSW 32.8 km/h 32.8 km/h 89 % 0 mm
07:20 -13.7 °C -14.6 °C 34073.3 hPa South 56.6 km/h 56.6 km/h 89 % 0 mm
07:25 -13.7 °C -14.6 °C 34073.3 hPa SSW 44.7 km/h 44.7 km/h 89 % 0 mm
07:30 -13.7 °C -14.6 °C 34073.3 hPa SSW 50.7 km/h 50.7 km/h 89 % 0 mm
07:35 -13.7 °C -14.8 °C 34073.3 hPa South 50.7 km/h 50.7 km/h 88 % 0 mm
07:40 -13.8 °C -14.8 °C 34073.3 hPa SW 50.7 km/h 50.7 km/h 88 % 0 mm
07:45 -13.8 °C -14.8 °C 34073.3 hPa SSW 35.7 km/h 35.7 km/h 88 % 0 mm
07:50 -13.8 °C -14.8 °C 34073.3 hPa SE 50.7 km/h 50.7 km/h 88 % 0 mm
07:55 -13.8 °C -14.8 °C 34073.3 hPa WSW 50.7 km/h 50.7 km/h 88 % 0 mm
08:00 -13.8 °C -14.9 °C 34073.3 hPa SSW 47.6 km/h 47.6 km/h 88 % 0 mm
08:05 -13.8 °C -14.9 °C 34073.3 hPa SSW 51.8 km/h 51.8 km/h 88 % 0 mm
08:10 -13.9 °C -14.9 °C 34073.3 hPa SSE 57 km/h 57 km/h 88 % 0 mm
08:15 -13.9 °C -15 °C 34063.2 hPa SE 56.6 km/h 56.6 km/h 87 % 0 mm
08:20 -13.9 °C -15.1 °C 34063.2 hPa SW 62.6 km/h 62.6 km/h 87 % 0 mm
08:25 -13.9 °C -15.1 °C 34063.2 hPa South 53.6 km/h 53.6 km/h 87 % 0 mm
08:30 -13.9 °C -15.1 °C 34063.2 hPa South 65.5 km/h 65.5 km/h 87 % 0 mm
08:33 -13.9 °C -15.1 °C 34049.6 hPa SSW 68.6 km/h 68.6 km/h 87 % 0 mm
08:38 -14 °C -15.1 °C 34049.6 hPa SSW 68.6 km/h 68.6 km/h 87 % 0 mm
08:43 -14 °C -15.1 °C 34049.6 hPa SW 56.6 km/h 56.6 km/h 87 % 0 mm
08:48 -14 °C -15.1 °C 34049.6 hPa SW 59.5 km/h 59.5 km/h 87 % 0 mm
08:53 -14 °C -15.1 °C 34049.6 hPa South 59.5 km/h 59.5 km/h 87 % 0 mm
08:58 -14.1 °C -15.2 °C 34039.5 hPa SSE 65.5 km/h 65.5 km/h 87 % 0 mm
09:03 -14.1 °C -15.2 °C 34039.5 hPa South 50.7 km/h 50.7 km/h 87 % 0 mm
09:06 -14.1 °C -15.2 °C 34039.5 hPa SSW 50.7 km/h 50.7 km/h 87 % 0 mm
09:08 -14.1 °C -15.2 °C 34039.5 hPa West 38.8 km/h 38.8 km/h 87 % 0 mm
09:13 -14.1 °C -15.2 °C 34039.5 hPa SSW 56.6 km/h 56.6 km/h 87 % 0 mm
09:18 -14.2 °C -15.3 °C 34039.5 hPa SE 50.7 km/h 50.7 km/h 87 % 0 mm
09:23 -14.2 °C -15.3 °C 34039.5 hPa SSW 74.5 km/h 74.5 km/h 87 % 0 mm
09:28 -14.2 °C -15.3 °C 34029.3 hPa South 50.7 km/h 50.7 km/h 87 % 0 mm
09:33 -14.2 °C -15.4 °C 34029.3 hPa SSW 59.5 km/h 59.5 km/h 86 % 0 mm
09:38 -14.2 °C -15.4 °C 34029.3 hPa WSW 56.6 km/h 56.6 km/h 86 % 0 mm
09:43 -14.3 °C -15.4 °C 34029.3 hPa SSW 53.6 km/h 53.6 km/h 86 % 0 mm
09:48 -14.3 °C -15.4 °C 34029.3 hPa SSW 68.6 km/h 68.6 km/h 86 % 0 mm
09:53 -14.3 °C -15.4 °C 34015.8 hPa South 56.6 km/h 56.6 km/h 86 % 0 mm
09:58 -14.3 °C -15.5 °C 34029.3 hPa SSW 62.6 km/h 62.6 km/h 86 % 0 mm
10:03 -14.3 °C -15.5 °C 34015.8 hPa SSW 65.5 km/h 65.5 km/h 86 % 0 mm
10:08 -14.3 °C -15.5 °C 34015.8 hPa South 77.4 km/h 77.4 km/h 86 % 0 mm
10:13 -14.3 °C -15.5 °C 34015.8 hPa SW 65.5 km/h 65.5 km/h 86 % 0 mm
10:18 -14.3 °C -15.5 °C 34015.8 hPa South 50.7 km/h 50.7 km/h 86 % 0 mm
10:23 -14.3 °C -15.5 °C 34005.6 hPa South 41.7 km/h 41.7 km/h 86 % 0 mm
10:28 -14.3 °C -15.5 °C 34005.6 hPa SSW 54.4 km/h 54.4 km/h 86 % 0 mm
10:33 -14.3 °C -15.6 °C 34005.6 hPa South 71.5 km/h 71.5 km/h 86 % 0 mm
10:38 -14.3 °C -15.5 °C 33992.1 hPa SE 44.7 km/h 44.7 km/h 86 % 0 mm
10:43 -14.3 °C -15.6 °C 33992.1 hPa West 65.5 km/h 65.5 km/h 86 % 0 mm
10:48 -14.3 °C -15.4 °C 33992.1 hPa SW 59.5 km/h 59.5 km/h 87 % 0 mm
10:53 -14.3 °C -15.4 °C 33981.9 hPa WSW 50.7 km/h 50.7 km/h 87 % 0 mm
10:58 -14.3 °C -15.4 °C 33981.9 hPa SSW 51.8 km/h 51.8 km/h 87 % 0 mm
11:03 -14.3 °C -15.4 °C 33971.7 hPa South 77.4 km/h 77.4 km/h 87 % 0 mm
11:08 -14.3 °C -15.4 °C 33971.7 hPa South 53.6 km/h 53.6 km/h 87 % 0 mm
11:13 -14.3 °C -15.4 °C 33971.7 hPa SSE 51.8 km/h 51.8 km/h 87 % 0 mm
11:18 -14.3 °C -15.4 °C 33958.2 hPa SSW 65.5 km/h 65.5 km/h 87 % 0 mm
11:23 -14.3 °C -15.4 °C 33958.2 hPa South 68.6 km/h 68.6 km/h 87 % 0 mm
11:28 -14.3 °C -15.4 °C 33958.2 hPa SSE 68.6 km/h 68.6 km/h 87 % 0 mm
11:30 -14.3 °C -15.4 °C 33948 hPa SE 50.7 km/h 50.7 km/h 87 % 0 mm
11:35 -14.3 °C -15.4 °C 33948 hPa SSE 67.3 km/h 67.3 km/h 88 % 0 mm
11:40 -14.4 °C -15.3 °C 33948 hPa SSW 50.7 km/h 50.7 km/h 89 % 0 mm
11:45 -14.5 °C -15.4 °C 33948 hPa South 67.3 km/h 67.3 km/h 89 % 0 mm
11:50 -14.5 °C -15.4 °C 33937.9 hPa SSE 80.5 km/h 80.5 km/h 89 % 0 mm
11:55 -14.6 °C -15.4 °C 33937.9 hPa South 62.6 km/h 62.6 km/h 90 % 0 mm
12:00 -14.6 °C -15.4 °C 33937.9 hPa SSE 62.6 km/h 62.6 km/h 90 % 0 mm
12:05 -14.6 °C -15.4 °C 33924.3 hPa South 68.6 km/h 68.6 km/h 90 % 0 mm
12:10 -14.6 °C -15.4 °C 33924.3 hPa South 65.5 km/h 65.5 km/h 89 % 0 mm
12:15 -14.6 °C -15.4 °C 33924.3 hPa SW 57 km/h 57 km/h 90 % 0 mm
12:20 -14.5 °C -15.4 °C 33914.2 hPa SSW 65.5 km/h 65.5 km/h 89 % 0 mm
12:25 -14.5 °C -15.4 °C 33914.2 hPa SSE 71.5 km/h 71.5 km/h 89 % 0 mm
12:30 -14.5 °C -15.4 °C 33914.2 hPa SSW 65.5 km/h 65.5 km/h 89 % 0 mm
12:35 -14.5 °C -15.4 °C 33914.2 hPa SE 59.5 km/h 59.5 km/h 89 % 0 mm
12:40 -14.5 °C -15.4 °C 33914.2 hPa SSW 50.7 km/h 50.7 km/h 89 % 0 mm
12:45 -14.5 °C -15.4 °C 33914.2 hPa SSE 65.5 km/h 65.5 km/h 89 % 0 mm
12:50 -14.5 °C -15.4 °C 33914.2 hPa South 44.7 km/h 44.7 km/h 89 % 0 mm
12:55 -14.5 °C -15.4 °C 33900.6 hPa SSW 62.6 km/h 62.6 km/h 89 % 0 mm
13:00 -14.5 °C -15.4 °C 33900.6 hPa SSW 65.5 km/h 65.5 km/h 89 % 0 mm
13:05 -14.5 °C -15.4 °C 33890.5 hPa South 41.7 km/h 41.7 km/h 89 % 0 mm
13:10 -14.5 °C -15.4 °C 33890.5 hPa SW 50.7 km/h 50.7 km/h 89 % 0 mm
13:15 -14.5 °C -15.5 °C 33890.5 hPa SSE 68.6 km/h 68.6 km/h 88 % 0 mm
13:20 -14.5 °C -15.5 °C 33890.5 hPa South 53.6 km/h 53.6 km/h 88 % 0 mm
13:22 -14.5 °C -15.5 °C 33890.5 hPa South 38.8 km/h 54.4 km/h 88 % 0 mm
13:27 -14.5 °C -15.4 °C 33890.5 hPa SSW 18.2 km/h 41.4 km/h 89 % 0 mm
13:32 -14.5 °C -15.5 °C 33880.3 hPa South 41.4 km/h 59.5 km/h 88 % 0 mm
13:37 -14.5 °C -15.5 °C 33880.3 hPa SSE 44.1 km/h 72.6 km/h 88 % 0 mm
13:50 -14.6 °C -15.6 °C 33880.3 hPa SSW 69.8 km/h 69.8 km/h 88 % 0 mm
13:55 -14.5 °C -15.5 °C 33866.8 hPa South 62.6 km/h 62.6 km/h 88 % 0 mm
14:00 -14.5 °C -15.5 °C 33866.8 hPa South 68.6 km/h 68.6 km/h 88 % 0 mm
14:03 -14.6 °C -15.6 °C 33856.6 hPa SW 62.6 km/h 62.6 km/h 88 % 0 mm
14:08 -14.6 °C -15.4 °C 33856.6 hPa South 53.6 km/h 53.6 km/h 89 % 0 mm
14:13 -14.6 °C -15.4 °C 33856.6 hPa SSE 62.6 km/h 62.6 km/h 89 % 0 mm
14:18 -14.6 °C -15.6 °C 33843.1 hPa SSE 77.4 km/h 77.4 km/h 88 % 0 mm
14:23 -14.6 °C -15.6 °C 33843.1 hPa SSW 53.6 km/h 53.6 km/h 88 % 0 mm
14:28 -14.6 °C -15.6 °C 33843.1 hPa SSE 65.5 km/h 65.5 km/h 88 % 0 mm
14:33 -14.6 °C -15.6 °C 33843.1 hPa South 71.5 km/h 71.5 km/h 88 % 0 mm
14:38 -14.6 °C -15.4 °C 33843.1 hPa South 68.6 km/h 68.6 km/h 89 % 0 mm
14:43 -14.6 °C -15.5 °C 33832.9 hPa South 74.5 km/h 74.5 km/h 89 % 0 mm
14:48 -14.6 °C -15.5 °C 33832.9 hPa SSE 50.7 km/h 50.7 km/h 89 % 0 mm
14:53 -14.6 °C -15.5 °C 33832.9 hPa SW 59.5 km/h 59.5 km/h 89 % 0 mm
14:58 -14.6 °C -15.4 °C 33822.8 hPa South 65.5 km/h 65.5 km/h 90 % 0 mm
15:03 -14.6 °C -15.4 °C 33822.8 hPa SSW 68.6 km/h 68.6 km/h 90 % 0 mm
15:08 -14.7 °C -15.4 °C 33822.8 hPa SSE 68.6 km/h 68.6 km/h 91 % 0 mm
15:13 -14.7 °C -15.4 °C 33809.2 hPa SSW 62.6 km/h 62.6 km/h 92 % 0 mm
15:18 -14.8 °C -15.4 °C 33809.2 hPa South 74.5 km/h 74.5 km/h 93 % 0 mm
15:23 -14.8 °C -15.4 °C 33809.2 hPa SSW 50.7 km/h 50.7 km/h 93 % 0 mm
15:28 -14.8 °C -15.4 °C 33809.2 hPa South 50.7 km/h 50.7 km/h 93 % 0 mm
15:33 -14.9 °C -15.4 °C 33799.1 hPa SSW 59.5 km/h 59.5 km/h 94 % 0 mm
15:38 -14.9 °C -15.4 °C 33799.1 hPa South 65.5 km/h 65.5 km/h 94 % 0 mm
15:43 -14.9 °C -15.4 °C 33799.1 hPa SSE 62.6 km/h 62.6 km/h 94 % 12.7 mm
15:48 -14.9 °C -15.3 °C 33799.1 hPa SSW 51.8 km/h 51.8 km/h 95 % 12.7 mm
15:53 -14.9 °C -15.4 °C 33788.9 hPa SE 53.6 km/h 53.6 km/h 95 % 12.7 mm
15:58 -14.9 °C -15.4 °C 33788.9 hPa SE 47.6 km/h 47.6 km/h 95 % 12.7 mm
16:03 -15 °C -15.3 °C 33788.9 hPa SSE 47.6 km/h 47.6 km/h 96 % 12.7 mm
16:08 -15 °C -15.3 °C 33788.9 hPa SSW 50.7 km/h 50.7 km/h 96 % 12.7 mm
16:13 -15 °C -15.3 °C 33788.9 hPa ESE 53.6 km/h 53.6 km/h 96 % 12.7 mm
16:18 -15.1 °C -15.4 °C 33788.9 hPa South 46.7 km/h 46.7 km/h 96 % 20.32 mm
16:23 -15 °C -15.3 °C 33775.4 hPa SSW 47.6 km/h 47.6 km/h 96 % 20.32 mm
16:28 -15 °C -15.3 °C 33775.4 hPa South 59.5 km/h 59.5 km/h 96 % 33.02 mm
16:33 -15 °C -15.2 °C 33775.4 hPa South 50.7 km/h 50.7 km/h 97 % 38.1 mm
16:43 -15 °C -15.2 °C 33765.2 hPa South 47.6 km/h 47.6 km/h 97 % 38.1 mm
16:48 -15 °C -15.2 °C 33765.2 hPa SSE 47.6 km/h 47.6 km/h 97 % 38.1 mm
16:53 -15 °C -15.2 °C 33765.2 hPa SSE 53.6 km/h 53.6 km/h 97 % 38.1 mm
16:58 -15 °C -15.2 °C 33765.2 hPa SSW 50.7 km/h 50.7 km/h 97 % 38.1 mm
17:03 -14.9 °C -15.2 °C 33751.6 hPa SSW 50.7 km/h 50.7 km/h 97 % 45.72 mm
17:08 -14.9 °C -15.2 °C 33751.6 hPa South 50.7 km/h 50.7 km/h 97 % 38.1 mm
17:13 -14.9 °C -15.2 °C 33751.6 hPa SE 56.6 km/h 56.6 km/h 97 % 38.1 mm
17:18 -14.9 °C -15.2 °C 33741.5 hPa SSE 68.6 km/h 68.6 km/h 97 % 33.02 mm
17:23 -14.9 °C -15.2 °C 33741.5 hPa South 62.1 km/h 62.1 km/h 97 % 38.1 mm
17:28 -14.9 °C -15.2 °C 33741.5 hPa South 41.7 km/h 41.7 km/h 97 % 25.4 mm
17:33 -14.9 °C -15.2 °C 33741.5 hPa SSW 59.5 km/h 59.5 km/h 97 % 20.32 mm
17:38 -14.9 °C -15.2 °C 33741.5 hPa SSE 62.6 km/h 62.6 km/h 97 % 12.7 mm
17:43 -14.9 °C -15.2 °C 33741.5 hPa South 72.6 km/h 72.6 km/h 97 % 12.7 mm
17:48 -14.9 °C -15.2 °C 33731.3 hPa SSE 71.5 km/h 71.5 km/h 97 % 12.7 mm
17:53 -14.9 °C -15.2 °C 33731.3 hPa South 68.6 km/h 68.6 km/h 97 % 12.7 mm
17:58 -14.9 °C -15.2 °C 33717.8 hPa South 62.6 km/h 62.6 km/h 97 % 12.7 mm
18:03 -14.9 °C -15.2 °C 33717.8 hPa South 50.7 km/h 50.7 km/h 97 % 12.7 mm
18:08 -14.9 °C -15.2 °C 33717.8 hPa SSE 53.6 km/h 53.6 km/h 97 % 12.7 mm
18:13 -14.9 °C -15.2 °C 33717.8 hPa South 46.7 km/h 46.7 km/h 97 % 12.7 mm
18:18 -14.9 °C -15.2 °C 33707.6 hPa South 56.6 km/h 56.6 km/h 97 % 12.7 mm
18:23 -14.9 °C -15.2 °C 33707.6 hPa SSE 59.5 km/h 59.5 km/h 97 % 12.7 mm
18:28 -14.9 °C -15.2 °C 33707.6 hPa SSW 65.5 km/h 65.5 km/h 97 % 12.7 mm
18:33 -14.9 °C -15.2 °C 33707.6 hPa SSW 56.6 km/h 56.6 km/h 97 % 12.7 mm
18:38 -14.9 °C -15.2 °C 33707.6 hPa SW 47.6 km/h 47.6 km/h 97 % 20.32 mm
18:43 -14.9 °C -15.2 °C 33707.6 hPa SSE 56.6 km/h 56.6 km/h 97 % 25.4 mm
18:48 -14.9 °C -15.1 °C 33694.1 hPa South 47.6 km/h 47.6 km/h 97 % 25.4 mm
18:53 -14.9 °C -15.1 °C 33694.1 hPa SE 47.6 km/h 47.6 km/h 97 % 25.4 mm
18:58 -14.9 °C -15.1 °C 33694.1 hPa SSE 56.6 km/h 56.6 km/h 97 % 25.4 mm
19:03 -14.9 °C -15.1 °C 33683.9 hPa South 44.7 km/h 44.7 km/h 97 % 25.4 mm
19:08 -14.9 °C -15.1 °C 33683.9 hPa SSE 35.7 km/h 35.7 km/h 97 % 25.4 mm
19:13 -14.9 °C -15.1 °C 33683.9 hPa South 36.2 km/h 36.2 km/h 97 % 33.02 mm
19:18 -14.9 °C -15.1 °C 33683.9 hPa South 50.7 km/h 50.7 km/h 97 % 25.4 mm
19:28 -14.9 °C -15.1 °C 33673.8 hPa SSW 54.4 km/h 54.4 km/h 97 % 25.4 mm
19:33 -14.9 °C -15.1 °C 33673.8 hPa SE 49.2 km/h 49.2 km/h 97 % 25.4 mm
19:38 -14.8 °C -15.1 °C 33673.8 hPa South 50.7 km/h 50.7 km/h 97 % 25.4 mm
19:43 -14.8 °C -15.1 °C 33673.8 hPa South 53.6 km/h 53.6 km/h 97 % 25.4 mm
19:48 -14.8 °C -15.1 °C 33660.2 hPa South 68.6 km/h 68.6 km/h 97 % 20.32 mm
19:53 -14.8 °C -15.1 °C 33660.2 hPa South 47.6 km/h 47.6 km/h 97 % 25.4 mm
19:58 -14.8 °C -15.1 °C 33660.2 hPa South 35.7 km/h 35.7 km/h 97 % 20.32 mm
20:03 -14.8 °C -15.1 °C 33650.1 hPa SSE 50.7 km/h 50.7 km/h 97 % 20.32 mm
20:08 -14.8 °C -15.1 °C 33650.1 hPa South 69.8 km/h 69.8 km/h 97 % 25.4 mm
20:13 -14.8 °C -15.1 °C 33650.1 hPa SSW 77.4 km/h 77.4 km/h 97 % 20.32 mm
20:18 -14.8 °C -15.1 °C 33650.1 hPa SSW 56.6 km/h 56.6 km/h 97 % 20.32 mm
20:23 -14.8 °C -15.1 °C 33639.9 hPa South 57 km/h 57 km/h 97 % 25.4 mm
20:28 -14.8 °C -15.1 °C 33639.9 hPa South 41.7 km/h 41.7 km/h 97 % 20.32 mm
20:33 -14.8 °C -15.1 °C 33639.9 hPa WSW 46.7 km/h 46.7 km/h 97 % 20.32 mm
20:38 -14.8 °C -15 °C 33639.9 hPa SSW 53.6 km/h 53.6 km/h 97 % 12.7 mm
20:43 -14.7 °C -14.9 °C 33639.9 hPa SW 53.6 km/h 53.6 km/h 97 % 12.7 mm
20:48 -14.7 °C -14.9 °C 33639.9 hPa SSW 44.1 km/h 44.1 km/h 97 % 12.7 mm
20:53 -14.7 °C -14.9 °C 33639.9 hPa South 71.5 km/h 71.5 km/h 97 % 12.7 mm
20:58 -14.7 °C -14.9 °C 33639.9 hPa SSW 50.7 km/h 50.7 km/h 97 % 12.7 mm
21:03 -14.7 °C -14.9 °C 33639.9 hPa South 64.7 km/h 64.7 km/h 97 % 12.7 mm
21:08 -14.7 °C -14.9 °C 33639.9 hPa SSW 50.7 km/h 50.7 km/h 97 % 12.7 mm
21:13 -14.7 °C -14.9 °C 33639.9 hPa SSE 35.7 km/h 35.7 km/h 97 % 12.7 mm
21:18 -14.6 °C -14.9 °C 33639.9 hPa South 41.7 km/h 41.7 km/h 97 % 12.7 mm
21:23 -14.6 °C -14.6 °C 33639.9 hPa SSE 38.8 km/h 38.8 km/h 100 % 12.7 mm
21:28 -14.6 °C -14.6 °C 33639.9 hPa South 44.1 km/h 44.1 km/h 100 % 7.62 mm
21:38 -14.6 °C -14.9 °C 33639.9 hPa SW 47.6 km/h 47.6 km/h 97 % 7.62 mm
21:43 -14.6 °C -14.6 °C 33639.9 hPa SSE 47.6 km/h 47.6 km/h 100 % 7.62 mm
21:53 -14.6 °C -14.6 °C 33639.9 hPa SW 51.8 km/h 51.8 km/h 100 % 0 mm
21:58 -14.6 °C -14.6 °C 33626.4 hPa SSE 35.7 km/h 35.7 km/h 100 % 0 mm
22:03 -14.6 °C -14.6 °C 33626.4 hPa SSW 41.7 km/h 41.7 km/h 100 % 0 mm
22:08 -14.6 °C -14.8 °C 33626.4 hPa SW 38.8 km/h 38.8 km/h 97 % 0 mm
22:13 -14.6 °C -14.8 °C 33626.4 hPa South 35.7 km/h 35.7 km/h 97 % 0 mm
22:18 -14.6 °C -14.8 °C 33626.4 hPa South 32.8 km/h 32.8 km/h 97 % 0 mm
22:23 -14.6 °C -14.8 °C 33626.4 hPa SW 36.2 km/h 36.2 km/h 97 % 0 mm
22:28 -14.6 °C -14.8 °C 33626.4 hPa SSE 41.7 km/h 41.7 km/h 97 % 0 mm
22:33 -14.6 °C -14.8 °C 33626.4 hPa South 49.2 km/h 49.2 km/h 97 % 0 mm
22:38 -14.6 °C -14.8 °C 33626.4 hPa SSE 23.8 km/h 23.8 km/h 97 % 0 mm
22:43 -14.6 °C -14.8 °C 33626.4 hPa SE 38.8 km/h 38.8 km/h 97 % 0 mm
22:48 -14.6 °C -14.8 °C 33626.4 hPa SSW 26.9 km/h 26.9 km/h 97 % 0 mm
22:53 -14.5 °C -14.8 °C 33626.4 hPa SW 23.8 km/h 23.8 km/h 97 % 0 mm
22:58 -14.5 °C -14.8 °C 33626.4 hPa SSW 41.4 km/h 41.4 km/h 97 % 0 mm
23:03 -14.6 °C -14.8 °C 33626.4 hPa SSE 32.8 km/h 32.8 km/h 97 % 0 mm
23:08 -14.6 °C -14.8 °C 33626.4 hPa SSW 18.2 km/h 33.6 km/h 97 % 0 mm
23:13 -14.6 °C -14.8 °C 33626.4 hPa SSW 18.2 km/h 44.1 km/h 97 % 0 mm
23:18 -14.6 °C -14.8 °C 33626.4 hPa SSW 20.8 km/h 31.1 km/h 97 % 0 mm
23:23 -14.6 °C -14.8 °C 33626.4 hPa SSW 12.9 km/h 20.8 km/h 97 % 0 mm
23:28 -14.6 °C -14.8 °C 33626.4 hPa SSW 18.2 km/h 33.6 km/h 97 % 0 mm
23:33 -14.6 °C -14.8 °C 33626.4 hPa South 20.8 km/h 33.6 km/h 97 % 0 mm
23:38 -14.6 °C -14.8 °C 33626.4 hPa SSW 12.9 km/h 36.2 km/h 97 % 0 mm
23:43 -14.6 °C -14.8 °C 33626.4 hPa South 20.8 km/h 36.2 km/h 97 % 0 mm
23:48 -14.6 °C -14.8 °C 33616.2 hPa South 23.3 km/h 31.1 km/h 97 % 0 mm
23:53 -14.6 °C -14.8 °C 33616.2 hPa SSW 12.9 km/h 31.1 km/h 97 % 0 mm
23:58 -14.6 °C -14.9 °C 33616.2 hPa SSW 18.2 km/h 31.1 km/h 97 % 0 mm
Vejr3
tilladelse af Weather Underground - 4 mb

script udviklet af  Jim McMurry - jmcmurry@mwt.net tilpasset til dette template  Wim van der Kuil - Leuven-Template.eu

du finder også vores vejrinformationer på:

European Weather Network

Weather Underground

AWEKAS

WeatherlinkIP

Citizen Weather Observer Program (CWOP)

udstyr som vi anvender:

vejrstation
Davis VP2+

vejrprogram
Weather Display

vejrserver
Dell E6400

hjemmeside host
Webhosting.dk

Davis VP2+

Weather Display

Dell E6400

Webhosting.dk